Time;durP1;ratioP1;P1;durP2;ratioP2;P2;SDS_P1;SDS_P2;PMS_P1;PMS_P2;Temp;Humidity;BMP_temperature;BMP_pressure;BME280_temperature;BME280_humidity;BME280_pressure;Samples;Min_cycle;Max_cycle;Signal;HPM_P1;HPM_P2
2023/10/12 00:00:24;;;;;;;8.20;4.00;;;19.60;51.00;;;20.92;41.71;97621.75;5027279;28;20056;-42
2023/10/12 00:02:52;;;;;;;5.47;3.67;;;19.50;51.30;;;20.93;41.59;97626.94;5026318;28;20068;-45
2023/10/12 00:05:20;;;;;;;7.72;4.13;;;19.50;51.20;;;20.95;41.63;97619.44;5033547;28;20049;-45
2023/10/12 00:07:49;;;;;;;5.97;4.32;;;19.50;51.20;;;20.96;41.74;97617.56;5025576;28;20040;-44
2023/10/12 00:12:46;;;;;;;8.57;4.00;;;19.50;51.50;;;20.92;41.72;97616.34;5033406;28;20037;-43
2023/10/12 00:15:23;;;;;;;6.68;3.80;;;19.50;51.50;;;20.93;41.77;97612.59;5034067;28;20481;-43
2023/10/12 00:17:55;;;;;;;7.97;4.20;;;19.50;51.30;;;20.94;41.91;97615.09;5025419;28;20057;-46
2023/10/12 00:23:02;;;;;;;7.53;3.92;;;19.50;51.50;;;20.95;41.63;97613.19;5033146;28;20539;-47
2023/10/12 00:25:34;;;;;;;6.25;3.78;;;19.50;51.80;;;20.94;41.79;97614.28;5032246;28;20216;-46
2023/10/12 00:28:03;;;;;;;7.18;4.50;;;19.50;51.50;;;20.94;41.98;97612.38;5032968;28;20042;-41
2023/10/12 00:30:31;;;;;;;9.13;4.45;;;19.50;51.50;;;20.94;42.19;97601.56;5031966;28;20076;-41
2023/10/12 00:32:59;;;;;;;9.23;3.53;;;19.50;51.60;;;20.96;41.88;97599.44;5032955;28;20053;-41
2023/10/12 00:35:27;;;;;;;9.02;4.55;;;19.50;51.50;;;20.97;42.23;97594.84;5031589;28;20053;-41
2023/10/12 00:37:54;;;;;;;11.20;3.90;;;19.50;51.50;;;20.98;42.15;97593.81;5031443;28;20041;-48
2023/10/12 00:40:32;;;;;;;14.65;4.90;;;19.50;51.40;;;20.96;42.03;97590.50;5031634;28;20054;-43
2023/10/12 00:43:00;;;;;;;7.10;3.50;;;19.50;51.40;;;20.94;42.24;97588.03;5026223;28;20045;-43
2023/10/12 00:45:30;;;;;;;9.15;4.40;;;19.50;51.40;;;20.95;41.93;97586.13;5032956;28;20064;-41
2023/10/12 00:48:04;;;;;;;6.13;3.67;;;19.50;51.60;;;20.95;42.08;97589.66;5032507;28;20045;-41
2023/10/12 00:50:32;;;;;;;6.30;4.07;;;19.50;51.20;;;20.95;41.91;97584.25;5033013;28;20052;-42
2023/10/12 00:53:14;;;;;;;5.57;3.72;;;19.60;51.30;;;20.93;42.20;97583.66;5032887;28;20520;-45
2023/10/12 00:55:43;;;;;;;7.47;3.88;;;19.60;51.40;;;20.90;41.87;97578.72;5031669;28;20093;-44
2023/10/12 00:58:14;;;;;;;6.22;3.65;;;19.60;51.30;;;20.91;42.19;97574.94;5031800;28;20057;-45
2023/10/12 01:00:46;;;;;;;6.50;3.92;;;19.60;51.10;;;20.94;42.29;97576.38;5047868;28;20629;-42
2023/10/12 01:03:35;;;;;;;11.48;4.93;;;19.60;51.00;;;20.93;42.14;97578.25;5033260;28;20400;-49
2023/10/12 01:08:43;;;;;;;8.35;4.13;;;19.70;50.90;;;21.01;41.79;97579.81;5031088;28;20059;-44
2023/10/12 01:11:20;;;;;;;5.20;3.78;;;19.70;50.90;;;21.00;41.79;97572.75;5033000;28;20437;-42
2023/10/12 01:14:09;;;;;;;7.80;3.85;;;19.70;50.70;;;20.99;41.80;97571.91;5030675;28;20045;-43
2023/10/12 01:19:23;;;;;;;6.70;3.90;;;19.70;50.80;;;20.99;41.80;97576.50;5031029;28;20049;-45
2023/10/12 01:27:22;;;;;;;7.10;3.83;;;19.70;51.00;;;20.93;42.18;97563.91;5031736;28;20049;-45
2023/10/12 01:29:50;;;;;;;5.25;4.18;;;19.60;50.90;;;20.94;42.18;97560.97;5032361;28;20497;-42
2023/10/12 01:34:53;;;;;;;5.03;3.80;;;19.70;50.90;;;20.95;41.89;97559.91;5032059;28;20042;-43
2023/10/12 01:37:24;;;;;;;5.05;3.50;;;19.70;50.70;;;20.94;41.82;97566.38;5031924;28;20497;-43
2023/10/12 01:45:30;;;;;;;6.35;3.63;;;19.70;50.90;;;20.88;41.76;97555.63;5031843;28;20056;-45
2023/10/12 01:48:22;;;;;;;6.43;3.85;;;19.60;50.70;;;20.87;41.75;97557.53;5016609;28;20444;-44
2023/10/12 01:50:50;;;;;;;6.57;4.20;;;19.60;50.60;;;20.89;41.62;97552.72;5031052;28;20045;-42
2023/10/12 01:55:52;;;;;;;7.88;4.60;;;19.60;50.50;;;20.91;41.76;97555.19;5030507;28;20488;-42
2023/10/12 01:58:27;;;;;;;6.60;4.17;;;19.60;50.40;;;20.89;41.90;97550.00;5046241;28;20428;-45
2023/10/12 02:01:07;;;;;;;6.28;4.03;;;19.70;50.50;;;20.90;41.47;97546.25;5029876;28;20299;-43
2023/10/12 02:03:42;;;;;;;8.50;3.70;;;19.70;50.40;;;20.93;41.74;97553.06;5031034;28;20046;-42
2023/10/12 02:06:14;;;;;;;7.03;4.10;;;19.70;50.40;;;20.89;41.82;97549.19;5031535;28;20037;-42
2023/10/12 02:08:46;;;;;;;5.40;4.50;;;19.70;50.30;;;20.94;41.43;97554.75;5031365;28;20421;-47
2023/10/12 02:13:47;;;;;;;8.68;4.40;;;19.60;50.30;;;20.89;41.87;97554.59;5029952;28;20049;-47
2023/10/12 02:19:04;;;;;;;9.02;4.00;;;19.50;50.50;;;20.88;41.56;97563.75;5030101;28;20045;-48
2023/10/12 02:21:37;;;;;;;5.88;4.30;;;19.60;50.70;;;20.85;41.91;97565.88;5031449;28;20045;-43
2023/10/12 02:34:25;;;;;;;6.65;3.58;;;19.40;51.30;;;20.80;41.73;97570.31;5029952;28;20049;-42
2023/10/12 02:39:41;;;;;;;6.45;4.50;;;19.20;51.70;;;20.75;41.75;97570.19;5029638;28;20049;-43
2023/10/12 02:42:17;;;;;;;6.32;4.00;;;19.10;52.00;;;20.71;42.07;97569.00;5031021;28;20164;-46
2023/10/12 02:47:29;;;;;;;7.10;4.70;;;19.00;52.60;;;20.60;42.58;97555.16;5013389;28;20072;-43
2023/10/12 02:50:01;;;;;;;9.60;5.40;;;18.90;52.80;;;20.59;42.23;97558.94;5028678;28;20041;-43
2023/10/12 02:52:30;;;;;;;7.55;4.50;;;18.80;52.90;;;20.54;42.53;97558.75;5030928;28;20049;-41
2023/10/12 02:55:08;;;;;;;6.72;3.97;;;18.80;53.10;;;20.50;42.44;97557.56;5030638;28;20041;-43
2023/10/12 02:57:37;;;;;;;9.68;4.40;;;18.80;53.50;;;20.43;42.70;97549.53;5029250;28;20045;-47
2023/10/12 03:00:12;;;;;;;6.55;4.32;;;18.70;54.00;;;20.36;42.79;97559.59;5029156;28;20501;-42
2023/10/12 03:02:42;;;;;;;7.30;3.72;;;18.60;54.30;;;20.32;42.88;97568.41;5029413;28;20055;-44
2023/10/12 03:05:18;;;;;;;8.68;5.47;;;18.50;54.40;;;20.24;43.42;97567.63;5028488;28;20501;-42
2023/10/12 03:07:46;;;;;;;7.75;4.28;;;18.50;54.90;;;20.24;43.09;97566.81;5030224;28;20037;-41
2023/10/12 03:10:26;;;;;;;9.40;4.47;;;18.40;54.90;;;20.20;43.42;97571.84;5029505;28;20049;-43
2023/10/12 03:13:04;;;;;;;13.15;5.28;;;18.40;55.00;;;20.19;43.30;97566.66;5030352;28;20045;-44
2023/10/12 03:15:41;;;;;;;7.63;4.18;;;18.40;55.00;;;20.17;43.43;97560.66;5033312;28;20050;-46
2023/10/12 03:18:12;;;;;;;6.95;4.55;;;18.40;55.10;;;20.15;43.61;97558.16;5026951;28;20053;-44
2023/10/12 03:21:00;;;;;;;8.52;4.45;;;18.40;55.40;;;20.12;43.91;97552.38;5034720;28;20060;-42
2023/10/12 03:23:29;;;;;;;7.95;4.50;;;18.40;55.40;;;20.11;43.69;97566.97;5033364;28;20056;-44
2023/10/12 03:25:57;;;;;;;7.05;4.30;;;18.40;55.20;;;20.09;43.85;97563.66;5032788;28;20049;-42
2023/10/12 03:28:35;;;;;;;6.60;4.05;;;18.40;55.10;;;20.11;43.72;97565.06;5034109;28;20041;-44
2023/10/12 03:31:18;;;;;;;8.05;3.78;;;18.40;55.20;;;20.05;44.04;97572.19;5034691;28;20037;-44
2023/10/12 03:33:53;;;;;;;7.45;4.20;;;18.40;55.30;;;20.03;43.96;97566.19;5034413;28;20049;-44
2023/10/12 03:36:36;;;;;;;6.55;3.70;;;18.30;55.20;;;20.03;43.95;97566.19;5034064;28;20071;-42
2023/10/12 03:39:13;;;;;;;7.43;3.83;;;18.40;55.30;;;20.08;43.94;97562.00;5032855;28;20049;-42
2023/10/12 03:44:49;;;;;;;6.93;3.95;;;18.60;55.00;;;20.12;43.60;97564.00;5030080;28;20056;-44
2023/10/12 03:47:29;;;;;;;8.73;3.92;;;18.60;54.40;;;20.17;43.83;97569.56;5026831;28;20056;-43
2023/10/12 03:50:00;;;;;;;6.65;4.95;;;18.60;54.20;;;20.21;43.50;97556.44;5033763;28;20084;-42
2023/10/12 03:53:20;;;;;;;8.57;5.25;;;18.70;54.00;;;20.25;43.66;97565.75;5032727;28;20046;-43
2023/10/12 03:55:19;;;;;;;6.75;4.65;;;18.80;53.90;;;20.27;43.21;97563.66;5039263;28;20061;-44
2023/10/12 03:58:00;;;;;;;8.68;4.72;;;18.80;53.60;;;20.27;43.49;97569.06;5033611;28;20041;-43
2023/10/12 04:00:50;;;;;;;10.23;4.85;;;18.80;53.50;;;20.34;43.11;97567.09;5034138;28;20378;-44
2023/10/12 04:03:19;;;;;;;9.65;4.78;;;18.90;53.40;;;20.31;43.08;97555.91;5027338;28;20101;-44
2023/10/12 04:05:55;;;;;;;7.32;4.95;;;18.90;53.50;;;20.33;43.53;97560.03;5033382;28;20046;-45
2023/10/12 04:11:42;;;;;;;6.32;4.28;;;18.90;53.40;;;20.35;43.36;97557.13;5033716;28;20046;-43
2023/10/12 04:14:53;;;;;;;7.90;4.88;;;18.80;53.60;;;20.31;43.30;97561.31;5031686;28;20065;-42
2023/10/12 04:17:19;;;;;;;6.75;5.30;;;18.70;54.00;;;20.31;43.52;97572.13;5032748;28;20045;-44
2023/10/12 04:20:12;;;;;;;6.90;5.15;;;18.70;54.00;;;20.32;43.23;97573.81;5033498;28;20061;-41
2023/10/12 04:28:16;;;;;;;6.68;4.60;;;18.70;54.20;;;20.27;43.54;97575.28;5032441;28;20061;-43
2023/10/12 04:31:34;;;;;;;8.02;4.50;;;18.60;54.10;;;20.25;43.60;97571.97;5033362;28;20046;-47
2023/10/12 04:36:32;;;;;;;6.57;4.47;;;18.60;54.40;;;20.20;43.54;97573.69;5025861;28;20041;-43
2023/10/12 04:41:39;;;;;;;8.13;4.25;;;18.60;54.10;;;20.21;43.34;97570.78;5031892;28;20045;-48
2023/10/12 04:47:06;;;;;;;7.45;3.97;;;18.60;54.10;;;20.19;43.32;97583.69;5032003;28;20046;-45
2023/10/12 04:54:59;;;;;;;;;;;18.60;54.20;;;20.23;43.61;97582.19;5033448;28;20054;-45
2023/10/12 04:57:37;;;;;;;10.45;4.30;;;18.60;54.60;;;20.32;43.50;97587.31;5026131;28;20308;-44
2023/10/12 05:07:54;;;;;;;8.35;5.03;;;18.90;53.70;;;20.39;43.14;97585.34;5032461;28;20049;-46
2023/10/12 05:13:06;;;;;;;7.13;4.30;;;18.90;53.40;;;20.46;43.08;97584.22;5031161;28;20045;-43
2023/10/12 05:15:42;;;;;;;6.18;4.30;;;19.00;53.10;;;20.49;43.16;97588.38;5032492;28;20068;-44
2023/10/12 05:18:12;;;;;;;8.05;4.72;;;19.10;53.20;;;20.53;43.44;97594.97;5032239;28;20057;-44
2023/10/12 05:20:41;;;;;;;7.05;3.75;;;19.10;53.20;;;20.54;43.60;97582.28;5032647;28;20531;-44
2023/10/12 05:23:12;;;;;;;9.65;5.68;;;19.10;53.20;;;20.56;43.37;97583.69;5030926;28;20046;-45
2023/10/12 05:28:27;;;;;;;10.23;4.63;;;19.20;53.10;;;20.64;43.40;97599.63;5022971;28;20060;-46
2023/10/12 05:30:59;;;;;;;7.03;4.93;;;19.20;52.80;;;20.67;42.98;97590.25;5032214;28;20309;-45
2023/10/12 05:34:26;;;;;;;7.10;3.78;;;19.30;52.80;;;20.70;42.92;97591.66;5032432;28;20041;-45
2023/10/12 05:36:17;;;;;;;7.13;4.10;;;19.30;52.80;;;20.74;43.01;97590.97;5023215;28;20060;-44
2023/10/12 05:38:50;;;;;;;11.38;4.80;;;19.30;52.80;;;20.74;43.23;97590.16;5030928;28;20123;-46
2023/10/12 05:44:04;;;;;;;8.00;4.32;;;19.30;52.80;;;20.75;42.73;97602.66;5031997;28;20492;-42
2023/10/12 05:46:34;;;;;;;7.22;4.13;;;19.30;52.80;;;20.77;43.14;97600.53;5030944;28;20044;-44
2023/10/12 05:49:11;;;;;;;9.18;4.20;;;19.30;52.70;;;20.79;42.96;97612.78;5031547;28;20052;-45
2023/10/12 05:51:45;;;;;;;8.23;4.32;;;19.30;53.20;;;20.82;43.27;97606.91;5030143;28;20041;-45
2023/10/12 05:54:19;;;;;;;5.68;4.00;;;19.40;52.80;;;20.81;43.09;97599.84;5031886;28;20064;-44
2023/10/12 05:56:51;;;;;;;10.68;4.00;;;19.30;52.80;;;20.78;42.90;97604.88;5031607;28;20497;-43
2023/10/12 05:59:20;;;;;;;9.88;4.47;;;19.40;53.00;;;20.79;43.21;97612.78;5031034;28;20045;-44
2023/10/12 06:01:51;;;;;;;6.57;4.53;;;19.30;53.20;;;20.79;43.21;97607.38;5031799;28;20042;-46
2023/10/12 06:04:19;;;;;;;8.27;4.00;;;19.30;53.40;;;20.75;43.41;97613.47;5031479;28;20497;-44
2023/10/12 06:06:51;;;;;;;8.32;4.50;;;19.20;53.60;;;20.75;43.26;97610.75;5031678;28;20056;-45
2023/10/12 06:09:23;;;;;;;7.47;5.00;;;19.20;53.70;;;20.77;43.46;97614.06;5030975;28;20048;-44
2023/10/12 06:11:53;;;;;;;7.28;4.18;;;19.20;53.80;;;20.76;43.30;97610.53;5024108;28;20056;-57
2023/10/12 06:14:24;;;;;;;6.35;4.72;;;19.20;53.70;;;20.78;43.17;97607.59;5031279;28;20037;-53
2023/10/12 06:16:55;;;;;;;7.50;3.97;;;19.20;53.70;;;20.81;43.11;97604.44;5031359;28;20076;-57
2023/10/12 06:19:26;;;;;;;7.47;4.45;;;19.30;53.50;;;20.84;43.08;97610.22;5031081;28;20045;-55
2023/10/12 06:21:59;;;;;;;5.45;3.75;;;19.30;53.30;;;20.88;43.05;97607.88;5031241;28;20042;-51
2023/10/12 06:24:33;;;;;;;8.90;4.25;;;19.40;53.90;;;20.92;43.12;97613.66;5023865;28;20041;-54
2023/10/12 06:27:22;;;;;;;6.90;4.07;;;19.50;53.10;;;20.95;42.88;97618.59;5030812;28;20051;-52
2023/10/12 06:29:54;;;;;;;7.65;4.57;;;19.50;53.30;;;20.97;42.94;97611.91;5031175;28;20394;-55
2023/10/12 06:32:32;;;;;;;7.88;4.43;;;19.50;53.10;;;20.99;43.35;97620.63;5030943;28;20050;-55
2023/10/12 06:45:54;;;;;;;9.30;4.75;;;19.70;53.20;;;21.16;43.12;97641.66;5015147;28;20052;-53
2023/10/12 06:51:03;;;;;;;8.90;5.18;;;19.70;53.10;;;21.17;43.32;97633.31;5030459;28;20390;-54
2023/10/12 06:53:36;;;;;;;15.65;5.85;;;19.70;53.20;;;21.19;43.41;97639.31;5021577;28;20053;-54
2023/10/12 06:59:09;;;;;;;9.50;5.53;;;19.90;53.30;;;21.28;43.05;97652.53;5030000;28;20401;-54
2023/10/12 07:04:27;;;;;;;11.65;4.55;;;19.90;53.10;;;21.26;43.36;97655.47;5029430;28;20057;-57
2023/10/12 07:07:10;;;;;;;10.40;4.57;;;19.90;53.20;;;21.27;43.15;97665.25;5027688;28;20280;-54
2023/10/12 07:09:42;;;;;;;11.18;4.75;;;19.80;53.60;;;21.27;43.74;97670.66;5022060;28;20447;-56
2023/10/12 07:12:19;;;;;;;10.82;4.80;;;19.70;54.20;;;21.26;43.93;97668.16;5028017;28;20045;-56
2023/10/12 07:14:47;;;;;;;14.80;4.63;;;19.70;55.60;;;21.26;43.77;97681.72;5028322;28;20496;-56
2023/10/12 07:17:16;;;;;;;9.63;4.75;;;19.70;54.80;;;21.27;44.02;97683.34;5027781;28;20485;-56
2023/10/12 07:19:47;;;;;;;13.52;6.45;;;19.70;54.70;;;21.28;43.80;97679.59;5029070;28;20045;-56
2023/10/12 07:22:15;;;;;;;13.50;5.50;;;19.70;54.70;;;21.27;43.83;97686.91;5030509;28;20045;-56
2023/10/12 07:24:44;;;;;;;12.70;5.93;;;19.70;54.80;;;21.27;44.08;97686.91;5030702;28;20488;-57
2023/10/12 07:27:15;;;;;;;10.95;5.95;;;19.70;55.00;;;21.27;44.16;97689.59;5028694;28;20053;-57
2023/10/12 07:29:44;;;;;;;6.50;4.13;;;19.70;55.10;;;21.27;44.23;97688.75;5030305;28;20049;-57
2023/10/12 07:32:54;;;;;;;12.05;5.43;;;19.70;55.20;;;21.27;43.99;97683.34;5029297;28;20056;-55
2023/10/12 07:35:31;;;;;;;11.20;4.93;;;19.70;55.10;;;21.29;44.05;97665.84;5030771;28;20057;-56
2023/10/12 07:37:59;;;;;;;8.23;4.97;;;19.70;55.00;;;21.33;44.00;97668.91;5030137;28;20041;-57
2023/10/12 07:40:34;;;;;;;12.02;4.90;;;19.80;54.90;;;21.37;44.07;97683.66;5030172;28;20048;-57
2023/10/12 07:43:10;;;;;;;11.02;5.10;;;19.90;54.50;;;21.38;43.77;97680.72;5030528;28;20048;-56
2023/10/12 07:45:40;;;;;;;10.52;5.25;;;20.00;54.50;;;21.44;43.97;97684.38;5023250;28;20057;-56
2023/10/12 07:48:09;;;;;;;6.88;4.75;;;20.00;54.30;;;21.48;43.54;97685.59;5029881;28;20049;-57
2023/10/12 07:50:47;;;;;;;12.23;5.28;;;20.00;54.10;;;21.51;43.65;97689.72;5029518;28;20045;-56
2023/10/12 07:53:22;;;;;;;8.05;5.47;;;20.10;54.10;;;21.52;44.00;97684.09;5030060;28;20049;-56
2023/10/12 07:56:00;;;;;;;9.82;3.72;;;20.10;54.10;;;21.56;43.55;97684.47;5030299;28;20057;-56
2023/10/12 07:58:29;;;;;;;11.98;4.43;;;20.10;54.10;;;21.61;43.42;97690.00;5029784;28;20048;-54
2023/10/12 08:04:00;;;;;;;9.93;5.38;;;20.20;53.90;;;21.68;43.46;97689.91;5059742;28;20481;-57
2023/10/12 08:06:31;;;;;;;10.60;5.43;;;20.20;53.90;;;21.68;43.78;97684.50;5036004;28;20543;-57
2023/10/12 08:09:05;;;;;;;9.00;4.25;;;20.20;53.80;;;21.67;43.36;97685.53;5033346;28;20052;-57
2023/10/12 08:11:34;;;;;;;8.70;4.65;;;20.30;53.60;;;21.67;43.34;97677.41;5033461;28;20042;-57
2023/10/12 08:14:34;;;;;;;11.65;5.18;;;20.30;53.70;;;21.69;43.28;97678.00;5029686;28;20053;-57
2023/10/12 08:19:45;;;;;;;11.05;4.97;;;20.40;53.30;;;21.74;43.20;97687.09;5027347;28;20382;-56
2023/10/12 08:22:29;;;;;;;12.35;4.28;;;20.40;53.10;;;21.76;43.37;97693.09;5032214;28;20064;-57
2023/10/12 08:24:59;;;;;;;9.30;4.63;;;20.40;53.00;;;21.80;43.04;97679.91;5032319;28;20037;-55
2023/10/12 08:27:27;;;;;;;8.45;4.53;;;20.40;52.90;;;21.82;43.06;97683.22;5033221;28;20045;-53
2023/10/12 08:32:29;;;;;;;9.48;4.68;;;20.50;52.80;;;21.86;42.98;97683.56;5033355;28;20042;-58
2023/10/12 08:37:35;;;;;;;14.85;5.15;;;20.50;52.50;;;21.89;42.70;97683.09;5033053;28;20193;-54
2023/10/12 08:45:15;;;;;;;6.82;4.50;;;20.60;52.30;;;21.93;42.60;97685.13;5033167;28;20045;-57
2023/10/12 08:47:50;;;;;;;11.70;4.40;;;20.60;52.10;;;21.95;42.79;97683.00;5031782;28;20049;-58
2023/10/12 08:52:50;;;;;;;5.68;4.00;;;20.60;52.20;;;22.03;42.57;97684.53;5033458;28;20037;-56
2023/10/12 08:55:24;;;;;;;7.53;4.32;;;20.70;52.20;;;22.06;42.55;97688.66;5033527;28;20042;-55
2023/10/12 08:58:11;;;;;;;6.22;4.60;;;20.70;52.00;;;22.08;42.68;97678.41;5030386;28;20515;-55
2023/10/12 09:01:22;;;;;;;8.73;5.10;;;20.80;51.60;;;22.13;42.64;97689.38;5023431;28;20064;-57
2023/10/12 09:03:49;;;;;;;9.52;4.25;;;20.80;51.80;;;22.14;42.23;97686.44;5025037;28;20053;-58
2023/10/12 09:09:03;;;;;;;6.85;4.13;;;20.80;51.50;;;22.16;42.59;97683.50;5032631;28;20037;-58
2023/10/12 09:11:34;;;;;;;9.57;4.43;;;20.80;51.70;;;22.19;42.31;97683.03;5032793;28;20052;-53
2023/10/12 09:14:13;;;;;;;5.57;4.00;;;20.90;51.80;;;22.22;42.45;97688.00;5032722;28;20108;-55
2023/10/12 09:16:43;;;;;;;8.27;4.85;;;20.90;51.70;;;22.25;42.28;97687.53;5024666;28;20037;-53
2023/10/12 09:19:28;;;;;;;7.18;4.55;;;20.90;51.70;;;22.27;42.50;97687.31;5032235;28;20409;-55
2023/10/12 09:22:03;;;;;;;9.45;4.38;;;20.90;51.70;;;22.29;42.29;97696.84;5017706;28;20049;-55
2023/10/12 09:24:36;;;;;;;9.45;4.82;;;20.90;51.80;;;22.28;42.57;97691.69;5023889;28;20068;-54
2023/10/12 09:27:13;;;;;;;9.23;5.28;;;20.90;51.70;;;22.30;42.31;97695.81;5023320;28;20048;-53
2023/10/12 09:29:57;;;;;;;7.50;4.43;;;20.90;51.80;;;22.33;42.32;97694.50;5027550;28;20061;-55
2023/10/12 09:32:28;;;;;;;8.18;4.22;;;20.90;51.50;;;22.35;42.17;97697.78;5027595;28;20068;-56
2023/10/12 09:37:28;;;;;;;7.22;5.38;;;21.00;51.40;;;22.41;42.20;97703.13;5024201;28;20049;-45
2023/10/12 09:39:58;;;;;;;6.60;4.82;;;21.20;51.40;;;22.45;42.33;97700.75;5025785;28;20109;-44
2023/10/12 09:42:30;;;;;;;10.27;4.15;;;21.20;51.40;;;22.51;42.02;97694.38;5026617;28;20061;-44
2023/10/12 09:45:01;;;;;;;6.22;4.65;;;21.20;51.30;;;22.54;42.45;97688.47;5024721;28;20048;-45
2023/10/12 09:47:44;;;;;;;11.15;4.72;;;21.30;51.30;;;22.59;42.39;97693.19;5012762;28;20042;-47
2023/10/12 09:50:15;;;;;;;10.82;5.20;;;21.40;51.40;;;22.62;42.41;97690.00;5020392;28;20045;-43
2023/10/12 09:52:57;;;;;;;6.78;4.45;;;21.40;51.40;;;22.63;42.24;97680.81;5028129;28;20041;-45
2023/10/12 09:55:32;;;;;;;7.25;4.72;;;21.40;51.20;;;22.61;42.31;97689.19;5046799;28;20045;-45
2023/10/12 09:58:22;;;;;;;9.55;4.38;;;21.40;50.90;;;22.63;42.07;97685.41;5030745;28;20044;-45
2023/10/12 10:00:55;;;;;;;7.22;4.95;;;21.40;51.30;;;22.62;42.57;97690.00;5030892;28;20440;-43
2023/10/12 10:03:47;;;;;;;12.50;5.25;;;21.40;51.40;;;22.62;42.45;97692.72;5031423;28;20048;-45
2023/10/12 10:06:37;;;;;;;6.97;5.88;;;21.40;51.60;;;22.66;42.49;97696.59;5024620;28;20046;-45
2023/10/12 10:11:40;;;;;;;7.13;4.88;;;21.40;51.70;;;22.72;42.50;97709.25;5030592;28;20046;-44
2023/10/12 10:14:13;;;;;;;7.55;5.15;;;21.50;51.70;;;22.75;42.46;97707.94;5030399;28;20088;-43
2023/10/12 10:16:46;;;;;;;10.52;5.38;;;21.60;51.60;;;22.80;42.33;97703.44;5031241;28;20049;-47
2023/10/12 10:19:16;;;;;;;8.75;5.35;;;21.50;51.70;;;22.89;42.30;97697.63;5030353;28;20049;-46
2023/10/12 10:22:04;;;;;;;8.68;5.72;;;21.70;51.70;;;22.93;42.27;97696.91;5031046;28;20041;-43
2023/10/12 10:24:43;;;;;;;9.35;5.13;;;21.70;51.60;;;22.97;42.36;97695.38;5045914;28;20050;-45
2023/10/12 10:27:16;;;;;;;8.07;4.82;;;21.80;51.70;;;23.05;42.28;97704.22;5029511;28;20375;-43
2023/10/12 10:29:56;;;;;;;8.93;4.60;;;21.80;51.60;;;23.07;42.42;97705.66;5031003;28;20037;-43
2023/10/12 10:32:37;;;;;;;7.25;4.80;;;21.90;51.70;;;23.13;42.22;97712.84;5030923;28;20041;-45
2023/10/12 10:35:18;;;;;;;12.32;4.32;;;21.90;51.50;;;23.16;42.19;97709.63;5030920;28;20054;-45
2023/10/12 10:37:47;;;;;;;8.52;4.10;;;21.90;51.30;;;23.19;42.45;97709.16;5027797;28;20041;-45
2023/10/12 10:40:20;;;;;;;7.65;4.57;;;22.00;51.40;;;23.24;42.49;97708.41;5030957;28;20048;-44
2023/10/12 10:43:07;;;;;;;15.60;5.60;;;22.00;51.50;;;23.27;42.09;97705.25;5023211;28;20425;-45
2023/10/12 10:45:37;;;;;;;9.55;4.97;;;22.10;51.10;;;23.32;41.74;97715.38;5029792;28;20050;-44
2023/10/12 10:48:05;;;;;;;12.73;7.07;;;22.10;50.60;;;23.30;42.83;97712.91;5030841;28;20045;-42
2023/10/12 10:50:43;;;;;;;12.85;5.70;;;22.10;52.30;;;23.30;42.79;97715.63;5031208;28;20068;-43
2023/10/12 10:53:15;;;;;;;8.60;5.85;;;22.00;52.70;;;23.28;42.74;97720.44;5029785;28;20049;-44
2023/10/12 10:55:43;;;;;;;10.23;5.80;;;21.90;53.00;;;23.23;42.97;97724.97;5029890;28;20057;-44
2023/10/12 10:58:20;;;;;;;14.35;6.13;;;21.80;53.40;;;23.14;42.95;97727.22;5029934;28;20057;-44
2023/10/12 11:00:56;;;;;;;10.30;6.30;;;21.60;53.90;;;23.04;43.09;97721.59;5030887;28;20048;-44
2023/10/12 11:03:32;;;;;;;14.48;5.82;;;21.40;54.00;;;22.99;42.96;97728.53;5029802;28;20117;-47
2023/10/12 11:06:01;;;;;;;13.45;6.07;;;21.40;54.30;;;22.94;43.52;97735.75;5023877;28;20512;-49
2023/10/12 11:08:32;;;;;;;13.13;6.97;;;21.30;55.00;;;22.89;43.88;97733.72;5030422;28;20048;-44
2023/10/12 11:13:40;;;;;;;11.98;6.32;;;21.30;57.00;;;22.81;44.19;97721.34;5030451;28;20041;-45
2023/10/12 11:16:20;;;;;;;10.98;6.72;;;21.20;56.20;;;22.72;44.24;97730.09;5030537;28;20037;-44
2023/10/12 11:18:51;;;;;;;9.93;6.18;;;21.00;56.10;;;22.71;43.60;97723.84;5028862;28;20046;-46
2023/10/12 11:21:19;;;;;;;12.85;5.50;;;21.10;55.00;;;22.71;43.77;97725.75;5029435;28;20048;-43
2023/10/12 11:23:50;;;;;;;12.25;5.55;;;21.10;54.50;;;22.73;43.67;97716.28;5029272;28;20037;-43
2023/10/12 11:26:18;;;;;;;14.88;5.95;;;21.20;54.20;;;22.73;43.58;97718.19;5030752;28;20053;-44
2023/10/12 11:29:00;;;;;;;11.75;6.13;;;21.30;54.10;;;22.77;43.85;97730.22;5028889;28;20050;-44
2023/10/12 11:31:30;;;;;;;13.63;5.93;;;21.30;54.40;;;22.84;43.88;97727.38;5029367;28;20104;-44
2023/10/12 11:34:00;;;;;;;8.13;5.57;;;21.40;54.30;;;22.93;43.81;97734.91;5030023;28;20501;-45
2023/10/12 11:36:28;;;;;;;12.40;5.53;;;21.60;54.00;;;22.96;43.78;97734.44;5030835;28;20041;-44
2023/10/12 11:39:17;;;;;;;8.57;5.63;;;21.60;54.10;;;23.00;43.49;97735.59;5034089;28;20413;-42
2023/10/12 11:42:06;;;;;;;12.02;5.68;;;21.70;53.80;;;23.12;43.87;97734.78;5034163;28;20420;-44
2023/10/12 11:44:36;;;;;;;10.90;6.65;;;21.90;54.20;;;23.23;43.59;97736.66;5034234;28;20535;-47
2023/10/12 11:47:07;;;;;;;9.95;5.50;;;22.00;53.50;;;23.25;43.63;97733.72;5034261;28;20386;-44
2023/10/12 11:49:57;;;;;;;11.68;6.50;;;22.00;53.50;;;23.30;43.47;97718.34;5032773;28;20045;-43
2023/10/12 11:52:30;;;;;;;17.63;5.57;;;22.10;53.40;;;23.33;43.49;97726.00;5033951;28;20037;-45
2023/10/12 11:55:21;;;;;;;11.32;5.82;;;22.10;53.40;;;23.38;43.57;97720.66;5026752;28;20045;-44
2023/10/12 11:57:54;;;;;;;10.80;5.15;;;22.20;53.60;;;23.47;43.54;97707.50;5033726;28;20041;-44
2023/10/12 12:00:29;;;;;;;11.40;5.35;;;22.20;53.50;;;23.54;43.48;97710.91;5034105;28;20046;-44
2023/10/12 12:02:59;;;;;;;9.82;5.28;;;22.30;53.40;;;23.53;43.54;97714.69;5026183;28;20042;-44
2023/10/12 12:05:30;;;;;;;7.95;5.28;;;22.30;53.40;;;23.63;43.34;97702.38;5033839;28;20046;-44
2023/10/12 12:08:05;;;;;;;9.48;5.25;;;22.40;53.20;;;23.65;43.32;97701.06;5026112;28;20053;-47
2023/10/12 12:10:53;;;;;;;13.05;6.03;;;22.50;53.10;;;23.64;43.32;97706.75;5033641;28;20060;-44
2023/10/12 12:13:21;;;;;;;10.50;5.53;;;22.50;52.80;;;23.64;43.47;97696.69;5033635;28;20045;-44
2023/10/12 12:15:51;;;;;;;10.25;5.28;;;22.40;53.20;;;23.54;43.50;97702.75;5033550;28;20045;-46
2023/10/12 12:18:22;;;;;;;9.65;6.47;;;22.40;52.70;;;23.52;43.60;97694.03;5033228;28;20072;-43
2023/10/12 12:20:53;;;;;;;9.82;5.47;;;22.40;53.30;;;23.54;43.79;97696.50;5033470;28;20137;-43
2023/10/12 12:23:27;;;;;;;7.45;5.15;;;22.40;53.20;;;23.64;43.28;97687.72;5033661;28;20424;-43
2023/10/12 12:26:14;;;;;;;14.90;5.72;;;22.50;52.60;;;23.61;43.47;97689.00;5033119;28;20045;-46
2023/10/12 12:28:44;;;;;;;8.25;5.45;;;22.60;52.80;;;23.78;43.12;97676.31;5033141;28;20077;-46
2023/10/12 12:31:15;;;;;;;7.57;5.10;;;22.70;51.90;;;23.85;43.01;97672.63;5033634;28;20041;-46
2023/10/12 12:33:44;;;;;;;8.57;5.68;;;22.80;52.00;;;23.92;42.70;97667.84;5033051;28;20045;-46
2023/10/12 12:36:23;;;;;;;11.85;5.35;;;22.80;51.80;;;23.96;42.82;97667.13;5033004;28;20420;-47
2023/10/12 12:41:29;;;;;;;10.82;5.38;;;22.90;51.50;;;24.07;42.49;97676.25;5022302;28;20045;-46
2023/10/12 12:43:59;;;;;;;10.52;5.13;;;22.90;51.60;;;24.08;42.35;97672.47;5027834;28;20357;-46
2023/10/12 12:46:30;;;;;;;12.60;5.57;;;23.00;51.30;;;24.06;42.20;97673.78;5027121;28;20041;-45
2023/10/12 12:48:58;;;;;;;26.50;6.38;;;22.90;51.20;;;24.05;42.06;97680.28;5032300;28;20045;-43
2023/10/12 12:51:26;;;;;;;9.18;5.75;;;22.80;51.40;;;24.02;41.89;97681.63;5031590;28;20053;-44
2023/10/12 12:53:54;;;;;;;8.75;5.95;;;22.80;50.80;;;23.97;42.05;97676.09;5032926;28;20409;-50
2023/10/12 12:56:24;;;;;;;8.65;4.60;;;22.70;51.10;;;23.97;41.72;97666.03;5032938;28;20081;-48
2023/10/12 12:58:54;;;;;;;10.00;5.07;;;22.80;50.90;;;23.93;41.72;97661.34;5031410;28;20497;-44
2023/10/12 13:01:26;;;;;;;11.57;6.07;;;22.60;50.70;;;23.92;41.46;97667.84;5033002;28;20049;-46
2023/10/12 13:03:56;;;;;;;6.13;4.68;;;22.60;50.10;;;23.93;41.55;97664.06;5032584;28;20063;-45
2023/10/12 13:06:24;;;;;;;8.70;5.30;;;22.60;50.60;;;23.91;41.38;97658.88;5032765;28;20050;-42